Stony Brook, Massachusetts
Current Conditions -  °F | °C
As of 7:36 AM on Thursday 23 Oct 2014 (Local Time) from KBED Reporting Station
Heavy Rain Heavy Rain  
Wind Chill: 44°   Ceiling: 900
Heat Index: 48°   Visibility: 2mi
Dew Point: 48°   Wind: 8mph
Humidity: 100%   Direction: 340°NNW
Pressure: 29.72"   Gusts: NA
Location:  42.359°N, 71.3°W
Report Text: KBED 231136Z 34007KT 2SM +RA BR BKN009 BKN024 OVC035 09/09 A2972 RMK AO2 P0023 T00890089
Loading
Personal Weather Stations






























Interactive Weather Map
Tropical Storm Tracking
New forecast layout! Learn more

10-Day Weather Forecast

Advertisements
Track Severe Weather on mobile